createdAt,value
2024-04-10T00:01:52.257Z,1.52
2024-04-10T00:04:19.425Z,1.65
2024-04-10T00:06:46.527Z,1.50
2024-04-10T00:09:14.235Z,1.63
2024-04-10T00:11:41.325Z,1.77
2024-04-10T00:14:08.457Z,1.85
2024-04-10T00:16:35.572Z,1.20
2024-04-10T00:19:02.741Z,1.83
2024-04-10T00:21:33.668Z,1.50
2024-04-10T00:24:00.644Z,1.20
2024-04-10T00:26:27.821Z,1.67
2024-04-10T00:28:54.879Z,1.55
2024-04-10T00:31:21.891Z,1.63
2024-04-10T00:33:49.995Z,2.30
2024-04-10T00:36:17.014Z,1.45
2024-04-10T00:38:46.029Z,1.83
2024-04-10T00:41:13.972Z,1.20
2024-04-10T00:43:41.934Z,1.40
2024-04-10T00:46:18.255Z,1.92
2024-04-10T00:48:46.293Z,1.65
2024-04-10T00:51:18.656Z,1.73
2024-04-10T00:53:46.585Z,1.77
2024-04-10T00:56:14.006Z,1.90
2024-04-10T00:58:41.559Z,2.00
2024-04-10T01:01:10.706Z,1.50
2024-04-10T01:03:39.757Z,1.45
2024-04-10T01:06:11.261Z,2.22
2024-04-10T01:08:39.420Z,1.83
2024-04-10T01:11:08.063Z,1.73
2024-04-10T01:13:35.799Z,1.58
2024-04-10T01:16:03.984Z,2.17
2024-04-10T01:18:31.408Z,1.65
2024-04-10T01:20:58.396Z,1.70
2024-04-10T01:23:26.551Z,1.70
2024-04-10T01:25:53.585Z,1.77
2024-04-10T01:28:20.551Z,2.08
2024-04-10T01:30:47.514Z,1.80
2024-04-10T01:33:14.576Z,1.80
2024-04-10T01:35:41.666Z,1.70
2024-04-10T01:38:08.776Z,1.95
2024-04-10T01:40:35.869Z,1.60
2024-04-10T01:43:02.772Z,2.05
2024-04-10T01:45:29.660Z,2.20
2024-04-10T01:47:57.719Z,2.47
2024-04-10T01:50:24.864Z,2.30
2024-04-10T01:52:53.260Z,1.73
2024-04-10T01:55:20.316Z,1.80
2024-04-10T01:57:47.310Z,2.10
2024-04-10T02:00:15.775Z,2.20
2024-04-10T02:02:42.912Z,2.10
2024-04-10T02:05:09.981Z,1.67
2024-04-10T02:07:36.929Z,2.25
2024-04-10T02:10:03.963Z,1.88
2024-04-10T02:12:30.778Z,2.20
2024-04-10T02:14:57.672Z,2.08
2024-04-10T02:17:25.111Z,2.20
2024-04-10T02:19:52.551Z,1.67
2024-04-10T02:22:19.609Z,1.80
2024-04-10T02:24:46.551Z,1.40
2024-04-10T02:27:13.489Z,1.58
2024-04-10T02:29:40.442Z,2.25
2024-04-10T02:32:07.410Z,2.20
2024-04-10T02:34:35.677Z,1.67
2024-04-10T02:37:02.632Z,1.73
2024-04-10T02:39:29.592Z,2.15
2024-04-10T02:41:57.472Z,2.22
2024-04-10T02:44:24.432Z,2.28
2024-04-10T02:46:51.642Z,2.53
2024-04-10T02:49:18.601Z,2.35
2024-04-10T02:51:45.477Z,2.25
2024-04-10T02:54:12.296Z,2.63
2024-04-10T02:56:39.234Z,2.22
2024-04-10T02:59:07.502Z,1.80
2024-04-10T03:01:34.467Z,1.77
2024-04-10T03:04:01.276Z,2.85
2024-04-10T03:06:28.573Z,2.28
2024-04-10T03:08:55.771Z,2.40
2024-04-10T03:11:22.728Z,1.98
2024-04-10T03:13:49.726Z,2.22
2024-04-10T03:16:17.802Z,2.15
2024-04-10T03:18:44.769Z,1.95
2024-04-10T03:21:12.310Z,3.13
2024-04-10T03:23:39.420Z,2.22
2024-04-10T03:26:07.884Z,1.63
2024-04-10T03:28:37.906Z,1.70
2024-04-10T03:31:07.869Z,2.53
2024-04-10T03:33:36.128Z,2.67
2024-04-10T03:36:05.376Z,2.47
2024-04-10T03:38:32.437Z,2.08
2024-04-10T03:40:59.389Z,1.20
2024-04-10T03:43:26.372Z,2.25
2024-04-10T03:45:54.311Z,2.95
2024-04-10T03:48:21.627Z,2.00
2024-04-10T03:50:48.847Z,1.95
2024-04-10T03:53:16.547Z,1.70
2024-04-10T03:55:43.546Z,2.30
2024-04-10T03:58:10.407Z,2.13
2024-04-10T04:00:37.501Z,2.22
2024-04-10T04:03:05.686Z,2.40
2024-04-10T04:05:32.923Z,2.22
2024-04-10T04:08:00.074Z,1.95
2024-04-10T04:10:27.079Z,1.80
2024-04-10T04:12:53.942Z,2.08
2024-04-10T04:15:20.773Z,1.90
2024-04-10T04:17:47.805Z,1.92
2024-04-10T04:20:14.999Z,2.97
2024-04-10T04:22:42.034Z,2.08
2024-04-10T04:25:08.928Z,1.90
2024-04-10T04:27:36.000Z,1.60
2024-04-10T04:30:03.135Z,2.40
2024-04-10T04:32:30.230Z,2.00
2024-04-10T04:34:59.292Z,2.28
2024-04-10T04:37:26.988Z,2.20
2024-04-10T04:39:55.309Z,2.00
2024-04-10T04:42:22.446Z,1.90
2024-04-10T04:44:49.592Z,2.38
2024-04-10T04:47:18.821Z,1.88
2024-04-10T04:49:45.898Z,1.98
2024-04-10T04:52:12.760Z,1.50
2024-04-10T04:54:39.628Z,2.00
2024-04-10T04:57:10.633Z,1.98
2024-04-10T04:59:37.887Z,2.70
2024-04-10T05:02:05.019Z,2.63
2024-04-10T05:04:50.967Z,2.20
2024-04-10T05:07:17.902Z,1.85
2024-04-10T05:09:51.804Z,1.90
2024-04-10T05:12:18.774Z,2.00
2024-04-10T05:14:49.983Z,1.77
2024-04-10T05:17:21.750Z,1.40
2024-04-10T05:19:48.699Z,1.40
2024-04-10T05:22:15.780Z,1.98
2024-04-10T05:24:42.968Z,2.05
2024-04-10T05:27:21.789Z,1.88
2024-04-10T05:29:54.971Z,2.25
2024-04-10T05:32:22.017Z,1.80
2024-04-10T05:34:48.974Z,2.13
2024-04-10T05:37:16.733Z,2.50
2024-04-10T05:39:43.596Z,1.40
2024-04-10T05:42:10.458Z,1.77
2024-04-10T05:44:38.400Z,2.42
2024-04-10T05:47:05.720Z,2.15
2024-04-10T05:49:32.637Z,1.77
2024-04-10T05:51:59.480Z,1.92
2024-04-10T05:54:27.387Z,2.20
2024-04-10T05:56:54.276Z,2.85
2024-04-10T05:59:21.305Z,2.47
2024-04-10T06:01:48.212Z,3.13
2024-04-10T06:04:15.744Z,1.95
2024-04-10T06:06:42.615Z,2.42
2024-04-10T06:09:09.720Z,2.30
2024-04-10T06:11:36.694Z,2.22
2024-04-10T06:14:04.242Z,2.13
2024-04-10T06:16:31.237Z,1.88
2024-04-10T06:18:58.265Z,3.00
2024-04-10T06:21:25.230Z,2.35
2024-04-10T06:23:52.206Z,1.92
2024-04-10T06:26:21.010Z,1.90
2024-04-10T06:28:47.970Z,1.73
2024-04-10T06:31:15.181Z,2.72
2024-04-10T06:33:42.344Z,2.25
2024-04-10T06:36:10.358Z,2.70
2024-04-10T06:38:38.638Z,2.55
2024-04-10T06:41:07.196Z,1.92
2024-04-10T06:43:34.530Z,2.40
2024-04-10T06:46:09.659Z,2.50
2024-04-10T06:48:36.921Z,1.73
2024-04-10T06:51:06.996Z,1.90
2024-04-10T06:53:34.857Z,2.20
2024-04-10T06:56:03.416Z,1.77
2024-04-10T06:58:32.756Z,1.73
2024-04-10T07:01:07.308Z,1.98
2024-04-10T07:03:40.204Z,2.15
2024-04-10T07:06:10.954Z,1.50
2024-04-10T07:08:45.251Z,1.42
2024-04-10T07:11:19.926Z,1.67
2024-04-10T07:13:52.724Z,2.30
2024-04-10T07:16:21.612Z,1.85
2024-04-10T07:18:48.787Z,1.92
2024-04-10T07:21:16.818Z,1.42
2024-04-10T07:23:47.004Z,1.73
2024-04-10T07:28:47.301Z,1.48
2024-04-10T07:31:16.975Z,2.00
2024-04-10T07:33:44.096Z,1.52
2024-04-10T07:36:15.821Z,1.50
2024-04-10T07:38:43.252Z,1.65
2024-04-10T07:41:10.750Z,1.25
2024-04-10T07:43:38.150Z,1.60
2024-04-10T07:46:13.444Z,1.30
2024-04-10T07:48:46.253Z,1.65
2024-04-10T07:51:14.549Z,1.58
2024-04-10T07:53:42.343Z,1.48
2024-04-10T07:56:10.873Z,1.50
2024-04-10T07:58:38.912Z,1.58
2024-04-10T08:01:06.831Z,1.02
2024-04-10T08:03:34.790Z,1.20
2024-04-10T08:06:04.870Z,1.90
2024-04-10T08:08:32.527Z,1.27
2024-04-10T08:11:04.799Z,1.30
2024-04-10T08:13:32.905Z,2.03
2024-04-10T08:16:01.791Z,1.48
2024-04-10T08:18:29.789Z,1.15
2024-04-10T08:21:01.831Z,1.02
2024-04-10T08:23:30.280Z,1.50
2024-04-10T08:25:58.063Z,1.80
2024-04-10T08:28:27.258Z,0.88
2024-04-10T08:30:57.561Z,1.33
2024-04-10T08:36:02.015Z,1.23
2024-04-10T08:38:29.076Z,1.38
2024-04-10T08:40:59.520Z,0.90
2024-04-10T08:43:32.942Z,1.67
2024-04-10T08:46:01.690Z,1.33
2024-04-10T08:48:29.380Z,1.42
2024-04-10T08:51:00.475Z,2.20
2024-04-10T08:53:28.184Z,1.50
2024-04-10T08:58:27.233Z,0.80
2024-04-10T09:00:54.180Z,1.67
2024-04-10T09:03:30.341Z,0.95
2024-04-10T09:06:20.178Z,1.55
2024-04-10T09:08:57.613Z,1.38
2024-04-10T09:11:24.531Z,0.70
2024-04-10T09:14:04.247Z,2.70
2024-04-10T09:16:31.774Z,0.93
2024-04-10T09:19:12.636Z,1.55
2024-04-10T09:21:42.037Z,1.05
2024-04-10T09:24:10.575Z,1.20
2024-04-10T09:26:39.704Z,1.50
2024-04-10T09:29:09.403Z,1.23
2024-04-10T09:31:39.256Z,0.73
2024-04-10T09:34:08.163Z,1.10
2024-04-10T09:36:35.316Z,0.88
2024-04-10T09:39:04.526Z,1.55
2024-04-10T09:41:36.480Z,1.08
2024-04-10T09:44:06.184Z,1.48
2024-04-10T09:46:37.481Z,1.30
2024-04-10T09:49:12.099Z,1.80
2024-04-10T09:51:46.408Z,1.23
2024-04-10T09:54:13.363Z,0.90
2024-04-10T09:56:53.228Z,0.90
2024-04-10T09:59:21.438Z,1.02
2024-04-10T10:01:49.755Z,0.50
2024-04-10T10:04:16.687Z,1.02
2024-04-10T10:06:43.599Z,1.10
2024-04-10T10:09:10.509Z,1.33
2024-04-10T10:11:37.456Z,0.43
2024-04-10T10:14:05.412Z,0.90
2024-04-10T10:16:33.820Z,1.08
2024-04-10T10:19:02.860Z,0.75
2024-04-10T10:21:31.491Z,0.55
2024-04-10T10:24:04.746Z,1.10
2024-04-10T10:26:32.061Z,0.88
2024-04-10T10:29:10.630Z,0.35
2024-04-10T10:31:39.181Z,0.85
2024-04-10T10:34:15.491Z,1.40
2024-04-10T10:36:46.996Z,0.90
2024-04-10T10:39:17.117Z,1.40
2024-04-10T10:41:44.091Z,1.10
2024-04-10T10:44:11.589Z,2.00
2024-04-10T10:46:40.536Z,1.30
2024-04-10T10:49:08.084Z,0.65
2024-04-10T10:51:36.620Z,1.23
2024-04-10T10:54:04.756Z,0.80
2024-04-10T10:56:32.023Z,1.10
2024-04-10T10:59:12.978Z,1.08
2024-04-10T11:01:41.726Z,1.10
2024-04-10T11:04:16.696Z,0.73
2024-04-10T11:06:44.621Z,0.90
2024-04-10T11:09:13.783Z,1.30
2024-04-10T11:11:41.556Z,0.68
2024-04-10T11:14:22.928Z,0.77
2024-04-10T11:16:59.390Z,0.88
2024-04-10T11:19:31.805Z,0.40
2024-04-10T11:22:18.146Z,0.40
2024-04-10T11:24:45.000Z,1.02
2024-04-10T11:27:13.580Z,0.70
2024-04-10T11:29:40.627Z,0.55
2024-04-10T11:32:08.135Z,0.50
2024-04-10T11:34:36.257Z,0.65
2024-04-10T11:37:03.537Z,0.35
2024-04-10T11:39:30.421Z,0.50
2024-04-10T11:42:00.145Z,1.10
2024-04-10T11:44:28.530Z,0.60
2024-04-10T11:46:55.522Z,0.50
2024-04-10T11:49:26.385Z,0.20
2024-04-10T11:51:53.346Z,0.50
2024-04-10T11:54:20.257Z,1.05
2024-04-10T11:56:47.227Z,0.80
2024-04-10T11:59:14.348Z,0.68
2024-04-10T12:01:41.314Z,0.47
2024-04-10T12:04:08.302Z,0.75
2024-04-10T12:06:35.325Z,0.40
2024-04-10T12:09:02.313Z,0.45
2024-04-10T12:11:29.407Z,0.30
2024-04-10T12:13:56.487Z,0.43
2024-04-10T12:16:25.741Z,0.77
2024-04-10T12:18:52.647Z,0.68
2024-04-10T12:21:19.495Z,0.40
2024-04-10T12:23:47.503Z,0.70
2024-04-10T12:26:15.570Z,0.55
2024-04-10T12:28:42.647Z,0.40
2024-04-10T12:31:09.561Z,1.00
2024-04-10T12:33:38.956Z,0.50
2024-04-10T12:36:25.110Z,0.60
2024-04-10T12:38:52.063Z,0.70
2024-04-10T12:41:19.087Z,0.73
2024-04-10T12:43:48.836Z,0.30
2024-04-10T12:46:20.385Z,0.28
2024-04-10T12:48:47.271Z,0.20
2024-04-10T12:51:14.202Z,0.47
2024-04-10T12:53:41.322Z,0.32
2024-04-10T12:56:08.271Z,0.60
2024-04-10T12:58:35.097Z,0.60
2024-04-10T13:01:06.163Z,0.80
2024-04-10T13:03:36.677Z,0.80
2024-04-10T13:06:04.035Z,0.80
2024-04-10T13:08:31.094Z,0.30
2024-04-10T13:11:09.242Z,0.60
2024-04-10T13:13:38.398Z,0.38
2024-04-10T13:16:06.683Z,1.05
2024-04-10T13:18:34.632Z,0.70
2024-04-10T13:21:02.395Z,0.60
2024-04-10T13:23:32.545Z,0.75
2024-04-10T13:26:07.172Z,0.63
2024-04-10T13:28:36.966Z,0.63
2024-04-10T13:31:17.967Z,0.60
2024-04-10T13:33:47.597Z,0.75
2024-04-10T13:36:16.636Z,0.57
2024-04-10T13:38:49.473Z,0.65
2024-04-10T13:43:47.171Z,0.60
2024-04-10T13:46:14.940Z,0.28
2024-04-10T13:48:44.859Z,0.60
2024-04-10T13:51:26.521Z,0.50
2024-04-10T13:53:54.583Z,0.52
2024-04-10T13:56:21.697Z,0.32
2024-04-10T13:58:49.975Z,0.45
2024-04-10T14:01:22.678Z,0.40
2024-04-10T14:03:57.792Z,0.50
2024-04-10T14:06:26.309Z,0.50
2024-04-10T14:08:55.210Z,1.35
2024-04-10T14:11:23.763Z,0.38
2024-04-10T14:13:52.310Z,0.60
2024-04-10T14:16:20.452Z,0.32
2024-04-10T14:18:47.513Z,0.60
2024-04-10T14:21:14.731Z,0.30
2024-04-10T14:23:44.840Z,0.50
2024-04-10T14:26:16.272Z,0.50
2024-04-10T14:28:43.313Z,0.47
2024-04-10T14:31:12.102Z,0.40
2024-04-10T14:33:41.527Z,0.52
2024-04-10T14:36:09.680Z,0.77
2024-04-10T14:38:37.698Z,0.50
2024-04-10T14:41:05.636Z,0.63
2024-04-10T14:43:33.911Z,0.70
2024-04-10T14:46:08.573Z,0.60
2024-04-10T14:48:37.330Z,0.98
2024-04-10T14:51:05.021Z,0.73
2024-04-10T14:53:32.197Z,1.38
2024-04-10T14:56:20.549Z,0.90
2024-04-10T14:58:49.216Z,0.52
2024-04-10T15:01:23.429Z,0.32
2024-04-10T15:03:50.881Z,0.70
2024-04-10T15:06:19.279Z,0.70
2024-04-10T15:08:48.425Z,0.65
2024-04-10T15:11:26.087Z,0.67
2024-04-10T15:13:53.766Z,0.45
2024-04-10T15:16:21.430Z,0.95
2024-04-10T15:18:49.405Z,0.40
2024-04-10T15:21:17.209Z,0.60
2024-04-10T15:23:45.231Z,0.98
2024-04-10T15:26:13.550Z,0.50
2024-04-10T15:28:41.334Z,0.98
2024-04-10T15:31:10.327Z,1.30
2024-04-10T15:33:39.739Z,1.02
2024-04-10T15:36:08.670Z,0.60
2024-04-10T15:38:36.742Z,0.93
2024-04-10T15:41:08.455Z,0.75
2024-04-10T15:43:36.479Z,1.13
2024-04-10T15:46:04.885Z,1.15
2024-04-10T15:48:33.786Z,0.63
2024-04-10T15:51:02.156Z,1.27
2024-04-10T15:53:32.250Z,0.68
2024-04-10T15:56:03.898Z,1.02
2024-04-10T15:58:31.258Z,0.75
2024-04-10T16:01:02.804Z,0.80
2024-04-10T16:03:37.942Z,0.95
2024-04-10T16:06:09.841Z,1.02
2024-04-10T16:08:37.152Z,0.68
2024-04-10T16:11:04.311Z,0.82
2024-04-10T16:15:06.588Z,0.68
2024-04-10T16:17:33.548Z,0.57
2024-04-10T16:20:00.409Z,0.93
2024-04-10T16:22:27.298Z,1.10
2024-04-10T16:24:54.341Z,0.70
2024-04-10T16:27:21.159Z,0.90
2024-04-10T16:29:48.513Z,1.27
2024-04-10T16:32:15.623Z,0.93
2024-04-10T16:34:42.608Z,0.80
2024-04-10T16:37:09.721Z,1.00
2024-04-10T16:39:37.006Z,0.30
2024-04-10T16:42:04.300Z,0.98
2024-04-10T16:44:31.356Z,0.85
2024-04-10T16:46:58.291Z,1.25
2024-04-10T16:49:25.205Z,1.05
2024-04-10T16:51:52.915Z,1.00
2024-04-10T16:54:19.875Z,1.15
2024-04-10T16:56:46.852Z,1.00
2024-04-10T16:59:14.213Z,1.48
2024-04-10T17:01:41.155Z,1.38
2024-04-10T17:04:08.335Z,1.25
2024-04-10T17:06:35.282Z,1.17
2024-04-10T17:09:02.345Z,0.90
2024-04-10T17:11:29.750Z,0.77
2024-04-10T17:13:57.589Z,1.13
2024-04-10T17:16:24.531Z,1.40
2024-04-10T17:19:10.363Z,1.13
2024-04-10T17:21:56.221Z,1.23
2024-04-10T17:24:23.239Z,1.40
2024-04-10T17:26:51.248Z,1.65
2024-04-10T17:29:23.472Z,1.20
2024-04-10T17:31:56.851Z,1.17
2024-04-10T17:34:24.800Z,1.55
2024-04-10T17:36:52.138Z,1.60
2024-04-10T17:39:19.188Z,1.20
2024-04-10T17:41:46.139Z,1.90
2024-04-10T17:44:13.109Z,1.23
2024-04-10T17:46:40.180Z,1.33
2024-04-10T17:49:07.737Z,1.10
2024-04-10T17:51:34.554Z,0.93
2024-04-10T17:54:03.365Z,1.33
2024-04-10T17:56:30.402Z,1.05
2024-04-10T17:58:57.239Z,1.17
2024-04-10T18:01:24.172Z,1.50
2024-04-10T18:03:58.558Z,1.10
2024-04-10T18:06:25.656Z,1.10
2024-04-10T18:08:56.846Z,1.52
2024-04-10T18:11:23.998Z,1.10
2024-04-10T18:13:50.915Z,1.00
2024-04-10T18:16:17.804Z,1.00
2024-04-10T18:18:45.065Z,1.33
2024-04-10T18:21:12.093Z,0.95
2024-04-10T18:23:40.730Z,1.02
2024-04-10T18:26:11.130Z,1.20
2024-04-10T18:28:38.862Z,1.13
2024-04-10T18:31:10.134Z,1.20
2024-04-10T18:33:38.194Z,0.82
2024-04-10T18:36:07.262Z,1.45
2024-04-10T18:38:35.586Z,1.40
2024-04-10T18:41:06.340Z,1.08
2024-04-10T18:43:36.693Z,0.95
2024-04-10T18:46:07.443Z,1.60
2024-04-10T18:48:35.990Z,1.20
2024-04-10T18:51:25.394Z,1.40
2024-04-10T18:53:52.619Z,1.00
2024-04-10T18:56:21.452Z,1.45
2024-04-10T18:58:48.500Z,1.40
2024-04-10T19:01:15.786Z,1.15
2024-04-10T19:03:44.169Z,0.98
2024-04-10T19:06:13.492Z,1.42
2024-04-10T19:08:42.806Z,1.42
2024-04-10T19:11:10.588Z,1.13
2024-04-10T19:13:37.514Z,1.50
2024-04-10T19:16:04.834Z,1.33
2024-04-10T19:18:33.603Z,1.80
2024-04-10T19:21:03.665Z,1.33
2024-04-10T19:23:31.242Z,1.20
2024-04-10T19:25:59.627Z,1.23
2024-04-10T19:28:28.215Z,1.20
2024-04-10T19:30:56.491Z,1.40
2024-04-10T19:33:30.130Z,1.42
2024-04-10T19:36:06.571Z,1.30
2024-04-10T19:38:33.886Z,1.20
2024-04-10T19:41:06.681Z,1.63
2024-04-10T19:43:34.506Z,1.20
2024-04-10T19:46:01.704Z,1.98
2024-04-10T19:48:28.917Z,1.48
2024-04-10T19:51:01.401Z,1.77
2024-04-10T19:53:28.913Z,1.35
2024-04-10T19:56:03.015Z,1.55
2024-04-10T19:58:31.044Z,1.90
2024-04-10T20:01:02.249Z,2.92
2024-04-10T20:03:29.293Z,1.88
2024-04-10T20:05:59.829Z,2.33
2024-04-10T20:08:26.809Z,2.42
2024-04-10T20:11:03.936Z,2.67
2024-04-10T20:13:31.696Z,1.63
2024-04-10T20:16:05.826Z,4.82
2024-04-10T20:18:35.219Z,2.05
2024-04-10T20:21:11.186Z,3.97
2024-04-10T20:23:38.801Z,4.97
2024-04-10T20:26:07.065Z,5.40
2024-04-10T20:28:34.940Z,4.40
2024-04-10T20:31:12.527Z,2.33
2024-04-10T20:33:40.401Z,1.92
2024-04-10T20:36:10.282Z,1.40
2024-04-10T20:38:37.813Z,1.48
2024-04-10T20:41:07.505Z,1.58
2024-04-10T20:43:35.543Z,1.60
2024-04-10T20:46:05.007Z,1.55
2024-04-10T20:48:33.519Z,1.60
2024-04-10T20:51:15.011Z,1.17
2024-04-10T20:53:43.713Z,1.30
2024-04-10T20:56:12.509Z,1.40
2024-04-10T20:58:41.454Z,1.17
2024-04-10T21:01:11.596Z,1.73
2024-04-10T21:03:39.226Z,1.48
2024-04-10T21:06:07.540Z,1.00
2024-04-10T21:08:56.519Z,1.77
2024-04-10T21:11:44.450Z,1.30
2024-04-10T21:14:30.927Z,1.30
2024-04-10T21:17:16.473Z,1.33
2024-04-10T21:20:02.124Z,1.30
2024-04-10T21:22:48.069Z,0.90
2024-04-10T21:25:39.951Z,1.20
2024-04-10T21:28:25.650Z,0.98
2024-04-10T21:31:11.432Z,1.05
2024-04-10T21:33:57.324Z,1.27
2024-04-10T21:36:43.181Z,0.82
2024-04-10T21:39:28.882Z,0.88
2024-04-10T21:42:14.439Z,0.60
2024-04-10T21:45:01.532Z,1.08
2024-04-10T21:47:48.579Z,1.17
2024-04-10T21:50:34.606Z,0.98
2024-04-10T21:53:20.390Z,0.93
2024-04-10T21:56:05.932Z,0.82
2024-04-10T21:58:52.024Z,0.43
2024-04-10T22:01:53.440Z,0.65
2024-04-10T22:04:47.271Z,1.02
2024-04-10T22:07:33.238Z,0.85
2024-04-10T22:10:00.215Z,1.15
2024-04-10T22:12:27.257Z,1.15
2024-04-10T22:14:54.378Z,1.15
2024-04-10T22:17:40.032Z,0.60
2024-04-10T22:20:27.149Z,0.98
2024-04-10T22:23:13.026Z,1.13
2024-04-10T22:25:53.032Z,0.65
2024-04-10T22:28:24.419Z,1.40
2024-04-10T22:30:51.479Z,1.00
2024-04-10T22:33:20.122Z,1.05
2024-04-10T22:35:57.553Z,0.68
2024-04-10T22:38:25.052Z,1.38
2024-04-10T22:40:52.097Z,1.00
2024-04-10T22:43:18.963Z,0.70
2024-04-10T22:45:45.883Z,0.85
2024-04-10T22:48:13.260Z,1.20
2024-04-10T22:50:40.508Z,0.57
2024-04-10T22:53:08.059Z,1.25
2024-04-10T22:55:34.920Z,0.95
2024-04-10T22:58:01.804Z,1.00
2024-04-10T23:00:29.078Z,1.30
2024-04-10T23:02:56.350Z,1.00
2024-04-10T23:05:40.892Z,1.02
2024-04-10T23:08:28.978Z,1.23
2024-04-10T23:10:59.284Z,1.33
2024-04-10T23:13:26.270Z,1.38
2024-04-10T23:15:53.266Z,0.75
2024-04-10T23:18:31.291Z,1.20
2024-04-10T23:21:07.040Z,0.85
2024-04-10T23:23:33.992Z,1.10
2024-04-10T23:26:00.970Z,0.50
2024-04-10T23:28:28.876Z,1.05
2024-04-10T23:30:55.845Z,1.10
2024-04-10T23:33:22.967Z,1.70
2024-04-10T23:35:50.206Z,0.50
2024-04-10T23:38:17.321Z,1.10
2024-04-10T23:40:46.236Z,1.27
2024-04-10T23:43:13.190Z,0.88
2024-04-10T23:45:40.280Z,0.57
2024-04-10T23:48:07.830Z,0.52
2024-04-10T23:50:36.178Z,1.05
2024-04-10T23:53:03.179Z,0.68
2024-04-10T23:55:31.111Z,1.48
2024-04-10T23:58:01.439Z,1.10
